Terminal Aerodrome Forecast
Issued by NWS Oklahoma City, OK

Home | Current Version | Previous Version | Text Only | Print | Product List | Glossary On
Versions: 1 2 3 4 5 6 7 8 9 10 11 12 13 14 15 16 17 18 19 20
000
FTUS44 KOUN 012323
TAFOUN
TAF
KOUN 012323Z 0200/0224 35012KT P6SM BKN040
      TEMPO 0200/0203 -RA BKN025
     FM020900 36012KT P6SM BKN025
     FM021500 36013KT P6SM BKN035=

USA.gov is the U.S. government's official web portal to all federal, state and local government web resources and services.